Time;durP1;ratioP1;P1;durP2;ratioP2;P2;SDS_P1;SDS_P2;PMS_P1;PMS_P2;Temp;Humidity;BMP_temperature;BMP_pressure;BME280_temperature;BME280_humidity;BME280_pressure;Samples;Min_cycle;Max_cycle;Signal;HPM_P1;HPM_P2
2023/12/26 00:02:24;;;;;;;0.25;0.15;;;;;;;14.82;92.02;99836.66;8333839;28;20037;-55
2023/12/26 00:06:24;;;;;;;0.10;0.10;;;;;;;14.74;91.58;99842.16;8333315;28;20076;-56
2023/12/26 00:10:24;;;;;;;0.35;0.10;;;;;;;14.68;91.09;99846.47;8311453;28;20251;-55
2023/12/26 00:14:25;;;;;;;0.32;0.20;;;;;;;14.69;89.31;99850.84;8235556;28;20254;-54
2023/12/26 00:18:25;;;;;;;2.08;0.20;;;;;;;14.63;88.09;99827.09;8239119;28;20036;-54
2023/12/26 00:22:26;;;;;;;0.57;0.30;;;;;;;14.70;87.20;99833.50;8237254;28;20392;-55
2023/12/26 00:26:26;;;;;;;0.43;0.20;;;;;;;14.69;85.66;99830.94;8291201;28;20075;-57
2023/12/26 00:30:30;;;;;;;0.63;0.23;;;;;;;14.64;85.57;99822.50;8283803;28;20044;-57
2023/12/26 00:34:30;;;;;;;2.20;1.00;;;;;;;14.74;84.64;99823.97;8254477;28;20217;-54
2023/12/26 00:38:31;;;;;;;0.55;0.30;;;;;;;14.62;85.20;99821.84;8241018;28;20061;-55
2023/12/26 00:42:31;;;;;;;0.65;0.30;;;;;;;14.55;85.63;99824.44;8278639;28;20417;-54
2023/12/26 00:46:32;;;;;;;0.63;0.20;;;;;;;14.46;85.48;99832.88;8247738;28;20041;-55
2023/12/26 00:50:34;;;;;;;1.42;0.40;;;;;;;14.45;85.17;99823.03;8247715;28;20171;-54
2023/12/26 00:54:36;;;;;;;0.22;0.20;;;;;;;14.49;84.83;99824.34;8243287;28;20423;-55
2023/12/26 00:58:37;;;;;;;1.35;0.20;;;;;;;14.49;84.87;99819.72;8240632;28;20045;-54
2023/12/26 01:02:38;;;;;;;0.80;0.10;;;;;;;14.44;84.12;99814.00;8276630;28;20450;-54
2023/12/26 01:06:40;;;;;;;0.77;0.20;;;;;;;14.41;84.04;99806.22;8281746;28;20033;-55
2023/12/26 01:10:40;;;;;;;1.98;0.30;;;;;;;14.35;84.18;99811.53;8291360;28;20048;-54
2023/12/26 01:14:41;;;;;;;0.52;0.20;;;;;;;14.29;84.21;99812.25;8339726;28;20506;-57
2023/12/26 01:18:41;;;;;;;0.50;0.22;;;;;;;14.21;84.24;99802.25;8338606;28;20045;-57
2023/12/26 01:22:42;;;;;;;0.30;0.20;;;;;;;14.23;83.91;99796.63;8338884;28;20508;-57
2023/12/26 01:26:43;;;;;;;0.60;0.10;;;;;;;14.30;82.68;99793.03;8338610;28;20463;-57
2023/12/26 01:30:43;;;;;;;1.50;0.20;;;;;;;14.32;83.18;99796.44;8337978;28;20029;-56
2023/12/26 01:34:45;;;;;;;1.25;0.30;;;;;;;14.37;82.10;99788.59;8339598;28;20124;-56
2023/12/26 01:38:46;;;;;;;0.22;0.20;;;;;;;14.38;82.36;99794.84;8335295;28;20060;-55
2023/12/26 01:42:47;;;;;;;1.00;0.30;;;;;;;14.36;82.88;99797.75;8338582;28;20029;-56
2023/12/26 01:46:48;;;;;;;1.65;0.20;;;;;;;14.31;83.61;99810.19;8339197;28;20088;-55
2023/12/26 01:50:49;;;;;;;0.52;0.43;;;;;;;14.30;83.29;99798.47;8338211;28;20032;-56
2023/12/26 01:54:49;;;;;;;1.00;0.20;;;;;;;14.27;83.70;99793.41;8336578;28;20065;-55
2023/12/26 01:58:50;;;;;;;0.40;0.20;;;;;;;14.21;84.68;99788.66;8339551;28;20036;-56
2023/12/26 02:02:52;;;;;;;3.80;0.30;;;;;;;14.21;84.56;99804.97;8287436;28;20487;-55
2023/12/26 02:06:54;;;;;;;0.30;0.20;;;;;;;14.14;85.30;99792.28;8281495;28;20124;-57
2023/12/26 02:10:55;;;;;;;1.95;0.38;;;;;;;14.06;85.86;99806.75;8285373;28;20040;-56
2023/12/26 02:14:57;;;;;;;1.10;0.20;;;;;;;14.00;87.14;99810.19;8283063;28;20040;-55
2023/12/26 02:18:57;;;;;;;2.88;0.30;;;;;;;13.96;88.18;99814.31;8242863;28;20041;-56
2023/12/26 02:22:58;;;;;;;3.60;0.20;;;;;;;13.83;89.78;99816.78;8246718;28;20410;-57
2023/12/26 02:26:59;;;;;;;1.48;0.20;;;;;;;13.77;91.20;99817.47;8245347;28;20071;-56
2023/12/26 02:31:02;;;;;;;2.05;0.30;;;;;;;13.72;92.03;99830.75;8283103;28;20735;-57
2023/12/26 02:35:05;;;;;;;0.37;0.30;;;;;;;13.64;92.95;99828.09;8281811;28;20116;-56
2023/12/26 02:39:09;;;;;;;1.95;0.13;;;;;;;13.65;93.03;99818.91;8280955;28;20180;-56
2023/12/26 02:43:10;;;;;;;;;;;;;;;13.62;92.55;99827.41;8241740;28;20040;-56
2023/12/26 02:47:10;;;;;;;3.40;0.40;;;;;;;13.59;92.97;99831.34;8242155;28;20194;-57
2023/12/26 02:51:11;;;;;;;0.95;0.25;;;;;;;13.61;92.68;99831.16;8258452;28;20273;-56
2023/12/26 02:55:11;;;;;;;3.03;0.20;;;;;;;13.61;92.20;99833.88;8282329;28;20037;-56
2023/12/26 02:59:12;;;;;;;0.75;0.25;;;;;;;13.59;93.06;99836.75;8320337;28;20045;-55
2023/12/26 03:03:12;;;;;;;0.20;0.10;;;;;;;13.52;93.82;99834.94;8335936;28;20037;-55
2023/12/26 03:07:13;;;;;;;0.52;0.20;;;;;;;13.48;94.20;99844.47;8336066;28;20045;-55
2023/12/26 03:11:14;;;;;;;0.57;0.20;;;;;;;13.44;94.95;99830.38;8330617;28;20075;-55
2023/12/26 03:15:15;;;;;;;3.25;0.25;;;;;;;13.42;95.54;99845.97;8285172;28;20045;-57
2023/12/26 03:19:16;;;;;;;0.50;0.20;;;;;;;13.41;95.14;99843.44;8279568;28;20045;-57
2023/12/26 03:23:16;;;;;;;1.50;0.28;;;;;;;13.42;95.37;99839.72;8283414;28;20356;-55
2023/12/26 03:27:17;;;;;;;0.82;0.13;;;;;;;13.41;95.54;99854.31;8282992;28;20174;-56
2023/12/26 03:31:17;;;;;;;2.40;0.20;;;;;;;13.39;95.43;99848.22;8281297;28;20568;-57
2023/12/26 03:35:18;;;;;;;1.85;0.47;;;;;;;13.40;94.42;99841.75;8282317;28;20044;-57
2023/12/26 03:39:19;;;;;;;0.85;0.20;;;;;;;13.41;94.95;99857.03;8280501;28;20177;-57
2023/12/26 03:43:20;;;;;;;1.45;0.10;;;;;;;13.37;95.59;99864.69;8329313;28;20552;-56
2023/12/26 03:47:20;;;;;;;0.15;0.15;;;;;;;13.46;94.20;99862.78;8337473;28;20045;-56
2023/12/26 03:51:21;;;;;;;1.70;0.20;;;;;;;13.40;94.23;99860.75;8335040;28;20550;-56
2023/12/26 03:55:22;;;;;;;0.10;0.10;;;;;;;13.48;94.03;99877.88;8336607;28;20025;-56
2023/12/26 03:59:22;;;;;;;0.70;0.10;;;;;;;13.45;93.86;99874.69;8302799;28;20537;-57
2023/12/26 04:03:23;;;;;;;1.23;0.20;;;;;;;13.51;93.34;99865.84;8288566;28;20246;-56
2023/12/26 04:07:23;;;;;;;1.60;0.20;;;;;;;13.50;93.73;99861.41;8289565;28;20253;-57
2023/12/26 04:11:24;;;;;;;1.35;0.20;;;;;;;13.52;93.90;99868.38;8282819;28;20473;-57
2023/12/26 04:15:25;;;;;;;1.70;0.28;;;;;;;13.53;93.72;99880.06;8304853;28;20120;-56
2023/12/26 04:19:25;;;;;;;0.30;0.30;;;;;;;13.56;93.56;99869.72;8340545;28;20631;-57
2023/12/26 04:23:26;;;;;;;0.20;0.10;;;;;;;13.53;93.65;99880.06;8307663;28;20048;-57
2023/12/26 04:27:26;;;;;;;1.00;0.17;;;;;;;13.57;93.55;99890.41;8323927;28;20053;-56
2023/12/26 04:31:27;;;;;;;0.63;0.20;;;;;;;13.56;93.87;99896.88;8317432;28;20072;-55
2023/12/26 04:35:28;;;;;;;0.52;0.10;;;;;;;13.52;94.14;99905.53;8285278;28;20041;-56
2023/12/26 04:39:28;;;;;;;0.73;0.20;;;;;;;13.54;94.33;99907.03;8285586;28;20660;-57
2023/12/26 04:43:29;;;;;;;1.98;0.45;;;;;;;13.56;94.10;99907.72;8277324;28;20837;-57
2023/12/26 04:47:30;;;;;;;0.82;0.30;;;;;;;13.58;94.32;99915.69;8240976;28;20050;-57
2023/12/26 04:51:30;;;;;;;0.98;0.40;;;;;;;13.63;94.26;99924.16;8243426;28;20355;-57
2023/12/26 04:55:32;;;;;;;0.40;0.20;;;;;;;13.63;94.55;99935.88;8243055;28;20699;-58
2023/12/26 04:59:32;;;;;;;1.27;0.40;;;;;;;13.58;95.48;99932.81;8258082;28;20521;-58
2023/12/26 05:03:33;;;;;;;2.85;0.40;;;;;;;13.52;96.59;99932.69;8284712;28;20041;-58
2023/12/26 05:07:33;;;;;;;4.75;0.40;;;;;;;13.46;96.95;99942.38;8283599;28;20471;-56
2023/12/26 05:11:34;;;;;;;3.45;0.50;;;;;;;13.47;97.90;99959.50;8293166;28;20034;-56
2023/12/26 05:15:35;;;;;;;3.00;0.45;;;;;;;13.34;99.26;99949.19;8339030;28;20130;-55
2023/12/26 05:19:35;;;;;;;3.33;0.73;;;;;;;13.24;100.00;99961.25;8340979;28;20510;-56
2023/12/26 05:23:37;;;;;;;2.00;0.40;;;;;;;13.29;99.92;99958.84;8339530;28;20072;-55
2023/12/26 05:27:38;;;;;;;3.60;0.63;;;;;;;13.39;98.81;99981.25;8337476;28;20041;-54
2023/12/26 05:31:39;;;;;;;4.72;0.50;;;;;;;13.39;98.29;99978.56;8337391;28;20094;-53
2023/12/26 05:35:40;;;;;;;7.32;0.70;;;;;;;13.41;97.87;99984.63;8338857;28;20585;-54
2023/12/26 05:39:44;;;;;;;4.72;0.80;;;;;;;13.42;97.57;99986.34;8338594;28;20454;-53
2023/12/26 05:43:44;;;;;;;3.08;0.70;;;;;;;13.51;96.73;100007.03;8339620;28;20087;-53
2023/12/26 05:47:45;;;;;;;4.22;0.85;;;;;;;13.56;95.97;100020.94;8340848;28;20543;-53
2023/12/26 05:51:46;;;;;;;2.80;0.60;;;;;;;13.62;95.26;100025.69;8339072;28;20433;-54
2023/12/26 05:55:46;;;;;;;9.60;1.00;;;;;;;13.66;95.19;100027.03;8337065;28;20037;-53
2023/12/26 05:59:47;;;;;;;4.45;0.65;;;;;;;13.69;95.07;100042.97;8338626;28;20029;-55
2023/12/26 06:03:47;;;;;;;3.42;0.60;;;;;;;13.70;94.57;100050.13;8339570;28;20413;-54
2023/12/26 06:07:48;;;;;;;3.58;0.75;;;;;;;13.68;94.31;100063.03;8336261;28;20128;-54
2023/12/26 06:11:49;;;;;;;3.80;0.88;;;;;;;13.69;93.71;100067.44;8273965;28;20140;-56
2023/12/26 06:15:49;;;;;;;3.35;0.60;;;;;;;13.71;93.22;100062.69;8241920;28;20791;-55
2023/12/26 06:19:50;;;;;;;3.38;0.95;;;;;;;13.73;92.81;100082.41;8239800;28;20041;-55
2023/12/26 06:23:50;;;;;;;7.90;1.10;;;;;;;13.74;92.14;100093.09;8240312;28;20053;-54
2023/12/26 06:27:51;;;;;;;3.53;0.95;;;;;;;13.73;92.12;100110.38;8240074;28;20232;-52
2023/12/26 06:31:51;;;;;;;3.80;0.80;;;;;;;13.73;91.53;100115.00;8250722;28;20251;-56
2023/12/26 06:35:52;;;;;;;4.60;0.73;;;;;;;13.77;91.41;100110.91;8283986;28;20046;-56
2023/12/26 06:39:53;;;;;;;6.22;0.65;;;;;;;13.78;91.07;100115.31;8289680;28;20065;-56
2023/12/26 06:43:53;;;;;;;3.13;0.68;;;;;;;13.79;90.60;100112.44;8283707;28;20048;-54
2023/12/26 06:47:54;;;;;;;5.10;1.33;;;;;;;13.75;90.79;100129.25;8282450;28;20045;-56
2023/12/26 06:51:55;;;;;;;4.97;1.02;;;;;;;13.72;90.27;100121.44;8284924;28;20032;-54
2023/12/26 06:55:55;;;;;;;6.55;1.00;;;;;;;13.81;90.14;100131.28;8309048;28;20037;-57
2023/12/26 06:59:56;;;;;;;5.78;1.27;;;;;;;13.80;90.30;100137.75;8311893;28;20401;-53
2023/12/26 07:03:56;;;;;;;6.18;1.27;;;;;;;13.74;90.46;100141.13;8301856;28;20037;-53
2023/12/26 07:07:57;;;;;;;7.70;1.48;;;;;;;13.76;89.74;100145.38;8337588;28;20037;-54
2023/12/26 07:11:57;;;;;;;4.05;1.08;;;;;;;13.76;88.93;100141.81;8336230;28;20052;-53
2023/12/26 07:15:58;;;;;;;9.23;1.13;;;;;;;13.72;88.67;100157.59;8313368;28;20091;-55
2023/12/26 07:19:58;;;;;;;2.63;0.80;;;;;;;13.65;89.23;100163.88;8284980;28;20029;-55
2023/12/26 07:23:59;;;;;;;5.78;1.42;;;;;;;13.69;89.07;100167.94;8282848;28;20036;-57
2023/12/26 07:28:00;;;;;;;6.35;1.10;;;;;;;13.66;89.40;100173.72;8283553;28;20570;-56
2023/12/26 07:32:01;;;;;;;6.75;1.27;;;;;;;13.61;89.23;100185.09;8282696;28;20411;-56
2023/12/26 07:36:09;;;;;;;4.03;0.82;;;;;;;13.60;89.29;100198.84;8280808;28;20060;-55
2023/12/26 07:40:10;;;;;;;3.28;0.88;;;;;;;13.60;89.29;100204.28;8236016;28;20033;-55
2023/12/26 07:44:11;;;;;;;5.68;1.05;;;;;;;13.61;88.86;100208.72;8259881;28;20366;-55
2023/12/26 07:48:11;;;;;;;5.03;1.30;;;;;;;13.58;88.69;100214.47;8290289;28;20042;-55
2023/12/26 07:52:12;;;;;;;5.70;1.50;;;;;;;13.52;88.95;100215.13;8337338;28;20124;-54
2023/12/26 07:56:13;;;;;;;7.35;1.35;;;;;;;13.57;88.64;100223.63;8335287;28;20182;-54
2023/12/26 08:00:13;;;;;;;5.20;1.70;;;;;;;13.61;88.53;100235.88;8339149;28;20041;-55
2023/12/26 08:04:14;;;;;;;2.80;1.20;;;;;;;13.68;87.59;100247.75;8339373;28;20044;-55
2023/12/26 08:08:14;;;;;;;3.95;1.50;;;;;;;13.63;88.10;100261.84;8332740;28;20042;-54
2023/12/26 08:12:15;;;;;;;6.85;1.38;;;;;;;13.64;87.73;100262.69;8337886;28;20569;-56
2023/12/26 08:16:16;;;;;;;6.25;1.80;;;;;;;13.67;86.73;100267.81;8345407;28;20052;-55
2023/12/26 08:20:16;;;;;;;4.97;1.63;;;;;;;13.69;86.52;100276.63;8352243;28;20068;-54
2023/12/26 08:24:17;;;;;;;9.18;1.20;;;;;;;13.63;86.63;100286.28;8354905;28;20033;-54
2023/12/26 08:28:17;;;;;;;10.10;2.35;;;;;;;13.64;86.00;100300.72;8344889;28;20033;-55
2023/12/26 08:32:18;;;;;;;8.93;2.03;;;;;;;13.70;85.73;100305.50;8354795;28;20135;-57
2023/12/26 08:36:19;;;;;;;6.85;1.33;;;;;;;13.72;85.25;100306.16;8357945;28;20120;-56
2023/12/26 08:40:20;;;;;;;11.45;1.42;;;;;;;13.69;84.97;100304.66;8342494;28;20037;-58
2023/12/26 08:44:20;;;;;;;5.22;1.30;;;;;;;13.77;84.99;100325.56;8346799;28;20419;-57
2023/12/26 08:48:21;;;;;;;7.28;1.67;;;;;;;13.76;85.18;100324.69;8349076;28;20040;-56
2023/12/26 08:52:22;;;;;;;6.80;1.10;;;;;;;13.77;85.53;100320.13;8340551;28;20044;-55
2023/12/26 08:56:24;;;;;;;7.65;1.70;;;;;;;13.88;85.26;100331.53;8343147;28;20415;-56
2023/12/26 09:00:24;;;;;;;6.53;1.67;;;;;;;14.04;84.59;100341.59;8340918;28;20166;-56
2023/12/26 09:04:26;;;;;;;9.88;1.73;;;;;;;14.02;85.03;100343.63;8336802;28;20046;-57
2023/12/26 09:08:27;;;;;;;5.93;1.67;;;;;;;14.06;85.29;100341.44;8339770;28;20170;-56
2023/12/26 09:12:27;;;;;;;4.20;1.45;;;;;;;14.00;84.72;100361.94;8337471;28;20088;-56
2023/12/26 09:16:28;;;;;;;8.98;1.80;;;;;;;13.97;85.38;100362.31;8339491;28;20449;-56
2023/12/26 09:20:29;;;;;;;5.28;1.73;;;;;;;13.95;85.23;100372.50;8338204;28;20041;-56
2023/12/26 09:24:29;;;;;;;7.50;1.58;;;;;;;13.95;84.85;100375.22;8340570;28;20061;-56
2023/12/26 09:28:31;;;;;;;6.72;1.65;;;;;;;13.91;85.13;100373.84;8340239;28;20102;-59
2023/12/26 09:32:32;;;;;;;4.72;1.67;;;;;;;13.97;84.18;100394.94;8338781;28;20471;-55
2023/12/26 09:36:32;;;;;;;11.93;2.20;;;;;;;13.96;83.69;100395.94;8333684;28;20030;-55
2023/12/26 09:40:33;;;;;;;4.95;1.15;;;;;;;14.01;81.63;100407.16;8340491;28;20052;-55
2023/12/26 09:44:33;;;;;;;7.55;1.40;;;;;;;14.11;80.40;100413.31;8337003;28;20435;-57
2023/12/26 09:48:34;;;;;;;6.85;1.13;;;;;;;14.28;79.94;100430.53;8349977;28;20110;-55
2023/12/26 09:52:35;;;;;;;6.93;1.25;;;;;;;14.24;79.89;100435.47;8332335;28;20453;-57
2023/12/26 09:56:39;;;;;;;7.75;1.30;;;;;;;14.38;78.49;100437.53;8323879;28;20102;-57
2023/12/26 10:00:41;;;;;;;6.25;1.30;;;;;;;14.51;77.66;100443.34;8335770;28;20308;-58
2023/12/26 10:04:43;;;;;;;5.78;1.08;;;;;;;15.60;74.61;100443.66;8337431;28;20553;-59
2023/12/26 10:08:44;;;;;;;10.63;1.52;;;;;;;17.26;66.61;100443.84;8337370;28;20049;-59
2023/12/26 10:12:44;;;;;;;7.25;1.38;;;;;;;18.21;61.80;100442.94;8336720;28;20180;-57
2023/12/26 10:16:47;;;;;;;7.38;0.90;;;;;;;17.99;60.77;100443.94;8338436;28;20087;-57
2023/12/26 10:20:48;;;;;;;4.40;0.70;;;;;;;18.17;61.04;100462.72;8339439;28;20030;-55
2023/12/26 10:24:48;;;;;;;9.88;1.10;;;;;;;17.92;60.75;100467.63;8339842;28;20040;-57
2023/12/26 10:28:50;;;;;;;6.53;1.40;;;;;;;18.10;60.65;100476.28;8338210;28;20064;-57
2023/12/26 10:32:59;;;;;;;7.18;1.10;;;;;;;18.26;59.58;100473.34;8337634;28;20603;-56
2023/12/26 10:37:00;;;;;;;9.48;1.20;;;;;;;16.91;62.44;100488.22;8336822;28;20041;-57
2023/12/26 10:41:06;;;;;;;5.60;0.90;;;;;;;16.55;63.49;100497.16;8338769;28;20047;-57
2023/12/26 10:45:08;;;;;;;11.27;0.90;;;;;;;15.96;64.33;100501.31;8338532;28;20500;-58
2023/12/26 10:49:17;;;;;;;6.72;1.05;;;;;;;15.47;64.43;100506.00;8338484;28;20120;-56
2023/12/26 10:53:21;;;;;;;6.65;1.10;;;;;;;15.61;64.09;100510.78;8337192;28;20061;-55
2023/12/26 10:57:23;;;;;;;6.60;1.00;;;;;;;15.42;65.26;100524.75;8337628;28;20123;-56
2023/12/26 11:02:25;;;;;;;8.43;1.08;;;;;;;15.08;64.58;100517.75;8336653;28;20389;-56
2023/12/26 11:06:50;;;;;;;3.92;0.90;;;;;;;14.96;64.68;100514.50;8334033;28;20045;-57
2023/12/26 11:11:10;;;;;;;7.80;1.27;;;;;;;14.57;65.69;100535.19;8336072;28;20415;-57
2023/12/26 11:15:31;;;;;;;10.30;1.70;;;;;;;14.28;66.65;100539.31;8335150;28;20037;-56
2023/12/26 11:19:53;;;;;;;6.40;0.77;;;;;;;13.97;67.76;100541.72;8336081;28;20473;-57
2023/12/26 11:24:13;;;;;;;9.98;1.38;;;;;;;13.68;68.44;100541.19;8337406;28;20045;-56
2023/12/26 11:28:33;;;;;;;8.13;0.93;;;;;;;13.61;69.59;100534.69;8336020;28;20042;-56
2023/12/26 11:32:57;;;;;;;7.50;1.13;;;;;;;13.71;70.11;100543.56;8337435;28;20092;-56
2023/12/26 11:37:17;;;;;;;13.40;0.80;;;;;;;13.72;70.21;100547.97;8334602;28;20086;-55
2023/12/26 11:41:38;;;;;;;7.90;1.40;;;;;;;13.66;69.07;100548.63;8336379;28;20034;-55
2023/12/26 11:45:59;;;;;;;9.80;2.05;;;;;;;13.52;69.90;100552.81;8335422;28;20037;-56
2023/12/26 11:50:20;;;;;;;10.60;1.25;;;;;;;13.57;71.00;100565.88;8329228;28;20037;-56
2023/12/26 11:54:40;;;;;;;10.25;1.35;;;;;;;13.66;70.16;100562.22;8335031;28;20606;-56
2023/12/26 11:59:04;;;;;;;6.30;1.23;;;;;;;13.59;70.51;100547.56;8336057;28;20063;-56
2023/12/26 12:03:26;;;;;;;;;;;;;;;13.69;70.71;100559.16;8333914;28;20037;-57
2023/12/26 12:08:13;;;;;;;7.93;1.45;;;;;;;13.68;71.60;100557.47;8332587;28;19961;-54
2023/12/26 12:12:33;;;;;;;12.20;1.75;;;;;;;13.83;71.27;100550.44;8334145;28;20092;-56
2023/12/26 12:16:54;;;;;;;9.10;1.58;;;;;;;13.69;72.30;100570.03;8334863;28;20492;-56
2023/12/26 12:21:18;;;;;;;10.38;1.52;;;;;;;13.76;72.78;100576.56;8338548;28;20041;-55
2023/12/26 12:25:44;;;;;;;;;;;;;;;13.73;73.63;100576.88;8342532;28;20034;-56
2023/12/26 12:30:05;;;;;;;14.40;1.67;;;;;;;13.78;73.46;100579.97;8341134;28;19960;-58
2023/12/26 12:34:25;;;;;;;8.05;1.40;;;;;;;13.76;74.51;100582.00;8341528;28;20030;-58
2023/12/26 12:38:47;;;;;;;11.00;1.33;;;;;;;13.74;74.01;100587.59;8340677;28;20454;-57
2023/12/26 12:43:10;;;;;;;15.18;1.83;;;;;;;13.79;74.26;100581.69;8324304;28;20042;-57
2023/12/26 12:47:31;;;;;;;14.13;1.88;;;;;;;13.75;74.65;100581.13;8319917;28;20118;-56
2023/12/26 12:51:51;;;;;;;16.17;1.70;;;;;;;13.57;74.75;100582.19;8336226;28;20044;-56
2023/12/26 12:56:11;;;;;;;13.57;1.52;;;;;;;13.52;75.29;100581.81;8340065;28;20041;-56
2023/12/26 13:00:32;;;;;;;14.88;2.35;;;;;;;13.77;74.96;100600.00;8340900;28;20538;-56
2023/12/26 13:04:56;;;;;;;10.45;1.60;;;;;;;13.66;75.03;100608.41;8339597;28;20506;-56
2023/12/26 13:09:16;;;;;;;;;;;;;;;13.74;75.15;100612.06;8340467;28;20041;-55
2023/12/26 13:13:36;;;;;;;15.23;1.77;;;;;;;13.88;73.54;100617.91;8335383;28;19935;-55
2023/12/26 13:18:00;;;;;;;12.43;2.85;;;;;;;13.85;73.13;100619.09;8340381;28;20507;-56
2023/12/26 13:22:20;;;;;;;8.38;1.52;;;;;;;13.88;72.25;100615.19;8339215;28;20041;-53
2023/12/26 13:26:40;;;;;;;12.23;1.80;;;;;;;13.85;71.46;100616.38;8339520;28;20385;-54
2023/12/26 13:31:01;;;;;;;7.82;1.38;;;;;;;13.77;72.08;100611.72;8339463;28;20033;-55
2023/12/26 13:35:27;;;;;;;12.75;2.10;;;;;;;13.61;72.66;100618.91;8342491;28;20037;-53
2023/12/26 13:39:48;;;;;;;13.50;2.20;;;;;;;13.40;73.83;100619.25;8339228;28;20061;-55
2023/12/26 13:44:10;;;;;;;10.18;1.65;;;;;;;13.31;73.53;100630.16;8339889;28;20087;-55
2023/12/26 13:48:31;;;;;;;12.18;2.28;;;;;;;13.26;74.29;100637.91;8338548;28;20116;-54
2023/12/26 13:51:51;;;;;;;9.63;1.95;;;;;;;13.20;73.17;100644.81;8339578;28;20446;-54
2023/12/26 13:55:51;;;;;;;4.53;1.08;;;;;;;13.17;70.69;100660.56;8341274;28;20106;-56
2023/12/26 13:59:52;;;;;;;10.50;2.20;;;;;;;13.24;69.66;100658.97;8339174;28;20033;-55
2023/12/26 14:03:52;;;;;;;12.55;1.20;;;;;;;13.19;70.28;100663.97;8339833;28;20072;-54
2023/12/26 14:07:57;;;;;;;5.80;1.20;;;;;;;13.15;68.75;100663.44;8337349;28;20427;-55
2023/12/26 14:11:57;;;;;;;5.85;0.90;;;;;;;13.15;68.75;100668.03;8340785;28;20431;-55
2023/12/26 14:15:58;;;;;;;10.38;1.30;;;;;;;13.02;69.34;100672.97;8338152;28;20083;-54
2023/12/26 14:19:58;;;;;;;9.18;1.35;;;;;;;13.05;69.02;100678.09;8340224;28;20033;-54
2023/12/26 14:23:59;;;;;;;8.13;1.25;;;;;;;13.03;69.61;100690.97;8339141;28;20500;-55
2023/12/26 14:27:59;;;;;;;11.27;1.40;;;;;;;12.99;70.84;100695.81;8338108;28;20408;-55
2023/12/26 14:31:59;;;;;;;10.65;1.33;;;;;;;12.85;71.46;100695.44;8340718;28;20033;-54
2023/12/26 14:36:00;;;;;;;12.15;1.75;;;;;;;12.73;72.33;100711.06;8336230;28;20215;-55
2023/12/26 14:40:00;;;;;;;8.93;1.45;;;;;;;12.60;73.31;100720.56;8339799;28;20131;-55
2023/12/26 14:44:01;;;;;;;10.40;1.42;;;;;;;12.51;73.75;100711.47;8336083;28;20044;-55
2023/12/26 14:48:02;;;;;;;10.65;2.05;;;;;;;12.45;74.77;100722.03;8337653;28;20132;-55
2023/12/26 14:52:03;;;;;;;14.25;2.00;;;;;;;12.42;74.71;100723.19;8338489;28;20037;-55
2023/12/26 14:56:04;;;;;;;15.10;1.65;;;;;;;12.37;75.38;100735.47;8339308;28;20069;-55
2023/12/26 15:00:04;;;;;;;15.45;1.65;;;;;;;12.32;75.71;100743.19;8337078;28;20124;-56
2023/12/26 15:04:07;;;;;;;8.27;1.88;;;;;;;12.27;76.11;100748.19;8338942;28;20061;-56
2023/12/26 15:08:07;;;;;;;16.77;1.60;;;;;;;12.19;76.55;100753.47;8335362;28;20052;-61
2023/12/26 15:12:08;;;;;;;18.48;1.90;;;;;;;12.06;76.75;100758.34;8336080;28;20036;-57
2023/12/26 15:16:18;;;;;;;9.95;1.40;;;;;;;12.05;77.10;100778.31;8336642;28;20037;-59
2023/12/26 15:20:18;;;;;;;10.98;1.45;;;;;;;11.96;77.35;100768.34;8336370;28;20099;-57
2023/12/26 15:24:19;;;;;;;12.48;1.83;;;;;;;11.92;77.66;100773.19;8338386;28;20061;-55
2023/12/26 15:28:19;;;;;;;11.13;1.73;;;;;;;11.89;77.51;100779.75;8337290;28;20499;-56
2023/12/26 15:32:19;;;;;;;10.80;1.77;;;;;;;11.86;78.00;100779.16;8336390;28;20033;-59
2023/12/26 15:36:23;;;;;;;10.40;1.63;;;;;;;11.78;78.44;100782.59;8338416;28;20040;-57
2023/12/26 15:40:24;;;;;;;13.53;1.33;;;;;;;11.67;78.83;100790.00;8336133;28;20037;-57
2023/12/26 15:44:24;;;;;;;18.75;2.00;;;;;;;11.65;78.73;100784.72;8337402;28;20279;-57
2023/12/26 15:48:24;;;;;;;8.90;1.95;;;;;;;11.55;79.03;100781.13;8336445;28;20041;-56
2023/12/26 15:52:26;;;;;;;15.10;1.95;;;;;;;11.49;79.13;100792.50;8338173;28;20040;-57
2023/12/26 15:56:28;;;;;;;6.55;1.10;;;;;;;11.44;79.27;100807.47;8339439;28;20037;-57
2023/12/26 16:00:29;;;;;;;14.10;1.85;;;;;;;11.38;79.71;100810.72;8343350;28;20400;-58
2023/12/26 16:04:29;;;;;;;13.05;1.65;;;;;;;11.36;80.13;100807.28;8342834;28;20049;-56
2023/12/26 16:08:30;;;;;;;10.15;1.58;;;;;;;11.28;79.99;100826.94;8341597;28;20396;-58
2023/12/26 16:12:32;;;;;;;12.25;1.65;;;;;;;11.21;80.64;100828.47;8341091;28;20121;-57
2023/12/26 16:16:38;;;;;;;16.33;2.00;;;;;;;11.15;81.20;100836.28;8342882;28;20127;-57
2023/12/26 16:20:39;;;;;;;10.85;1.67;;;;;;;11.07;81.10;100847.78;8344469;28;20033;-57
2023/12/26 16:24:39;;;;;;;21.20;2.40;;;;;;;11.09;81.13;100848.50;8343983;28;20044;-56
2023/12/26 16:28:39;;;;;;;16.27;2.28;;;;;;;11.02;81.46;100863.59;8341879;28;20045;-56
2023/12/26 16:32:40;;;;;;;18.27;2.28;;;;;;;10.94;81.47;100866.09;8343444;28;20033;-56
2023/12/26 16:36:40;;;;;;;13.93;1.65;;;;;;;10.82;82.22;100877.97;8340587;28;20061;-56
2023/12/26 16:40:41;;;;;;;8.40;1.70;;;;;;;10.70;82.84;100876.34;8343865;28;20033;-56
2023/12/26 16:44:45;;;;;;;12.85;1.92;;;;;;;10.72;82.70;100877.06;8340895;28;20040;-56
2023/12/26 16:48:45;;;;;;;12.82;3.15;;;;;;;10.76;82.24;100881.22;8343013;28;20116;-56
2023/12/26 16:52:46;;;;;;;13.55;2.70;;;;;;;10.64;82.91;100886.84;8341904;28;20040;-57
2023/12/26 16:56:46;;;;;;;15.18;2.60;;;;;;;10.63;83.21;100885.13;8340934;28;20041;-55
2023/12/26 17:00:47;;;;;;;17.85;3.08;;;;;;;10.52;83.64;100902.25;8343308;28;20514;-56
2023/12/26 17:04:48;;;;;;;18.80;3.42;;;;;;;10.44;83.66;100904.78;8342401;28;20564;-56
2023/12/26 17:08:48;;;;;;;19.23;2.65;;;;;;;10.39;84.35;100923.22;8340854;28;20067;-56
2023/12/26 17:12:49;;;;;;;15.75;2.20;;;;;;;10.35;84.14;100927.16;8340043;28;20032;-56
2023/12/26 17:16:49;;;;;;;17.08;2.92;;;;;;;10.24;84.25;100924.50;8339992;28;20125;-55
2023/12/26 17:20:50;;;;;;;17.23;3.40;;;;;;;10.18;84.96;100925.00;8339882;28;20033;-57
2023/12/26 17:24:50;;;;;;;16.15;3.42;;;;;;;10.07;85.14;100935.00;8340119;28;20091;-58
2023/12/26 17:28:54;;;;;;;15.80;3.08;;;;;;;10.01;85.08;100933.63;8342504;28;20045;-56
2023/12/26 17:32:54;;;;;;;17.63;3.33;;;;;;;9.82;86.24;100933.41;8339417;28;20488;-56
2023/12/26 17:36:55;;;;;;;14.32;2.55;;;;;;;9.82;85.61;100944.22;8339574;28;20464;-57
2023/12/26 17:40:55;;;;;;;18.02;2.50;;;;;;;9.81;86.39;100948.78;8341002;28;20067;-57
2023/12/26 17:44:56;;;;;;;13.57;3.03;;;;;;;9.82;86.74;100950.47;8337654;28;20128;-56
2023/12/26 17:48:56;;;;;;;22.60;4.25;;;;;;;9.72;86.17;100960.31;8338685;28;20458;-56
2023/12/26 17:52:57;;;;;;;26.08;6.45;;;;;;;9.68;86.54;100958.00;8340107;28;20102;-57
2023/12/26 17:56:57;;;;;;;35.35;14.27;;;;;;;9.61;86.95;100964.88;8335945;28;20124;-55
2023/12/26 18:00:58;;;;;;;44.67;16.60;;;;;;;9.52;87.02;100969.16;8350719;28;20085;-56
2023/12/26 18:04:59;;;;;;;22.00;5.32;;;;;;;9.57;87.80;100974.19;8372995;28;20051;-55
2023/12/26 18:08:59;;;;;;;20.92;5.32;;;;;;;9.64;86.97;100970.03;8354012;28;20718;-56
2023/12/26 18:13:00;;;;;;;18.35;2.45;;;;;;;9.60;86.55;100971.25;8343752;28;20401;-57
2023/12/26 18:17:01;;;;;;;9.77;2.05;;;;;;;9.51;87.55;100969.28;8339462;28;20120;-56
2023/12/26 18:21:01;;;;;;;18.40;5.70;;;;;;;9.53;87.62;100973.59;8340816;28;20415;-55
2023/12/26 18:25:05;;;;;;;27.10;10.02;;;;;;;9.62;87.53;100974.69;8336733;28;20098;-55
2023/12/26 18:29:08;;;;;;;23.63;4.63;;;;;;;9.58;87.66;100984.84;8347154;28;20053;-56
2023/12/26 18:33:08;;;;;;;17.23;2.95;;;;;;;9.57;87.59;100984.97;8340193;28;20154;-60
2023/12/26 18:37:10;;;;;;;18.92;3.33;;;;;;;9.69;86.64;100997.50;8334656;28;20127;-54
2023/12/26 18:41:15;;;;;;;17.45;3.10;;;;;;;9.72;86.46;100997.25;8335447;28;20040;-55
2023/12/26 18:45:15;;;;;;;;;;;;;;;9.76;86.10;101012.25;8339477;28;20128;-56
2023/12/26 18:49:16;;;;;;;19.30;3.05;;;;;;;9.77;85.79;101005.84;8346134;28;20005;-56
2023/12/26 18:53:17;;;;;;;17.10;3.08;;;;;;;9.78;86.62;101012.97;8341175;28;20053;-56
2023/12/26 18:57:19;;;;;;;17.50;3.30;;;;;;;9.80;85.78;101021.81;8345305;28;20055;-56